Time;durP1;ratioP1;P1;durP2;ratioP2;P2;SDS_P1;SDS_P2;PMS_P1;PMS_P2;Temp;Humidity;BMP_temperature;BMP_pressure;BME280_temperature;BME280_humidity;BME280_pressure;Samples;Min_cycle;Max_cycle;Signal;HPM_P1;HPM_P2
2024/03/20 00:01:54;;;;;;;27.20;15.00;;;10.00;99.90;;;;;;4974371;28;20217;-74
2024/03/20 00:04:20;;;;;;;28.00;13.40;;;9.80;99.90;;;;;;4974760;28;20696;-75
2024/03/20 00:06:46;;;;;;;28.90;15.23;;;9.80;99.90;;;;;;4957602;28;20539;-75
2024/03/20 00:09:13;;;;;;;32.50;14.40;;;9.90;99.90;;;;;;4962338;28;20226;-75
2024/03/20 00:11:38;;;;;;;21.30;13.80;;;9.90;99.90;;;;;;4958137;28;20673;-75
2024/03/20 00:14:07;;;;;;;27.47;14.10;;;9.90;99.90;;;;;;4976431;28;20450;-75
2024/03/20 00:16:34;;;;;;;22.40;12.63;;;9.90;99.90;;;;;;4959795;28;20222;-75
2024/03/20 00:19:00;;;;;;;24.70;12.47;;;9.80;99.90;;;;;;4972789;28;20457;-75
2024/03/20 00:21:26;;;;;;;27.10;13.17;;;9.90;99.90;;;;;;4975252;28;20465;-74
2024/03/20 00:23:52;;;;;;;22.80;12.80;;;9.90;99.90;;;;;;4957812;28;20847;-75
2024/03/20 00:26:18;;;;;;;25.00;12.20;;;9.90;99.90;;;;;;4970357;28;20233;-76
2024/03/20 00:28:44;;;;;;;22.10;13.03;;;9.80;99.90;;;;;;4970971;28;20474;-75
2024/03/20 00:31:09;;;;;;;20.97;10.77;;;9.70;99.90;;;;;;4961483;28;20469;-75
2024/03/20 00:33:35;;;;;;;23.50;12.87;;;9.80;99.90;;;;;;4962664;28;20754;-75
2024/03/20 00:36:01;;;;;;;20.17;11.37;;;9.70;99.90;;;;;;4976509;28;20221;-75
2024/03/20 00:38:26;;;;;;;20.20;10.97;;;9.70;99.90;;;;;;4975669;28;20226;-74
2024/03/20 00:40:52;;;;;;;22.13;12.60;;;9.70;99.90;;;;;;4957795;28;20265;-75
2024/03/20 00:43:18;;;;;;;23.47;12.97;;;9.80;99.90;;;;;;4973419;28;20237;-75
2024/03/20 00:45:44;;;;;;;19.43;11.17;;;9.80;99.90;;;;;;4976006;28;20226;-75
2024/03/20 00:48:10;;;;;;;26.43;12.77;;;9.80;99.90;;;;;;4975465;28;20456;-75
2024/03/20 00:50:35;;;;;;;22.10;11.80;;;9.80;99.90;;;;;;4961050;28;20218;-74
2024/03/20 00:53:01;;;;;;;24.73;12.70;;;9.80;99.90;;;;;;4974024;28;20230;-74
2024/03/20 00:55:27;;;;;;;20.67;12.00;;;9.80;99.90;;;;;;4964361;28;20703;-75
2024/03/20 00:57:53;;;;;;;20.70;11.27;;;9.80;99.90;;;;;;4974588;28;20228;-75
2024/03/20 01:00:19;;;;;;;23.83;12.67;;;9.80;99.90;;;;;;4973198;28;20489;-74
2024/03/20 01:02:46;;;;;;;19.63;11.90;;;9.70;99.90;;;;;;4954109;28;20217;-74
2024/03/20 01:05:12;;;;;;;22.33;12.70;;;9.70;99.90;;;;;;4978821;28;20473;-75
2024/03/20 01:07:37;;;;;;;26.23;12.87;;;9.70;99.90;;;;;;4962951;28;20540;-74
2024/03/20 01:10:03;;;;;;;22.87;11.57;;;9.70;99.90;;;;;;4945533;28;20469;-74
2024/03/20 01:12:35;;;;;;;25.50;13.60;;;9.70;99.90;;;;;;4955827;28;20221;-74
2024/03/20 01:15:04;;;;;;;25.57;13.03;;;9.70;99.90;;;;;;4957055;28;20469;-74
2024/03/20 01:17:33;;;;;;;21.27;12.77;;;9.60;99.90;;;;;;4943713;28;20469;-74
2024/03/20 01:20:00;;;;;;;25.60;12.93;;;9.60;99.90;;;;;;4956712;28;20466;-75
2024/03/20 01:22:26;;;;;;;28.33;14.00;;;9.60;99.90;;;;;;4978854;28;20880;-74
2024/03/20 01:24:51;;;;;;;26.53;12.57;;;9.60;99.90;;;;;;4974171;28;20474;-75
2024/03/20 01:27:17;;;;;;;25.33;12.67;;;9.60;99.90;;;;;;4979944;28;20464;-75
2024/03/20 01:29:43;;;;;;;23.93;12.90;;;9.60;99.90;;;;;;4976768;28;20229;-74
2024/03/20 01:32:08;;;;;;;27.83;14.83;;;9.60;99.90;;;;;;4967233;28;20300;-75
2024/03/20 01:34:34;;;;;;;24.57;12.77;;;9.60;99.90;;;;;;4979463;28;20257;-74
2024/03/20 01:37:00;;;;;;;23.60;13.17;;;9.60;99.90;;;;;;4954999;28;20220;-75
2024/03/20 01:39:25;;;;;;;28.30;14.20;;;9.60;99.90;;;;;;4979170;28;20222;-75
2024/03/20 01:41:51;;;;;;;25.10;12.80;;;9.50;99.90;;;;;;4973373;28;20222;-75
2024/03/20 01:44:17;;;;;;;22.60;11.80;;;9.50;99.90;;;;;;4961879;28;20222;-74
2024/03/20 01:46:42;;;;;;;23.67;13.10;;;9.50;99.90;;;;;;4963335;28;20797;-74
2024/03/20 01:49:09;;;;;;;20.97;12.07;;;9.50;99.90;;;;;;4963949;28;20222;-75
2024/03/20 01:51:37;;;;;;;23.53;12.77;;;9.50;99.90;;;;;;4978415;28;20233;-74
2024/03/20 01:54:04;;;;;;;27.20;13.60;;;9.40;99.90;;;;;;4958541;28;20472;-74
2024/03/20 01:56:31;;;;;;;26.30;13.83;;;9.40;99.90;;;;;;4975395;28;20486;-73
2024/03/20 01:58:57;;;;;;;23.93;12.67;;;9.40;99.90;;;;;;4973732;28;20555;-73
2024/03/20 02:01:23;;;;;;;23.23;12.40;;;9.40;99.90;;;;;;4963923;28;20568;-74
2024/03/20 02:03:48;;;;;;;22.87;14.17;;;9.40;99.90;;;;;;4963826;28;20221;-76
2024/03/20 02:06:22;;;;;;;23.20;13.03;;;9.40;99.90;;;;;;4967833;28;20656;-74
2024/03/20 02:08:53;;;;;;;22.43;13.03;;;9.30;99.90;;;;;;4975950;28;20221;-73
2024/03/20 02:11:24;;;;;;;29.53;12.10;;;9.30;99.90;;;;;;4978312;28;20465;-76
2024/03/20 02:13:54;;;;;;;23.70;13.10;;;9.30;99.90;;;;;;4975195;28;20539;-75
2024/03/20 02:16:21;;;;;;;28.40;14.20;;;9.30;99.90;;;;;;4973452;28;20485;-75
2024/03/20 02:18:48;;;;;;;23.23;12.67;;;9.30;99.90;;;;;;4946288;28;20465;-75
2024/03/20 02:21:15;;;;;;;22.83;12.33;;;9.30;99.90;;;;;;4966291;28;20468;-75
2024/03/20 02:23:41;;;;;;;23.90;13.33;;;9.20;99.90;;;;;;4961049;28;20480;-75
2024/03/20 02:26:08;;;;;;;26.60;12.70;;;9.30;99.90;;;;;;4961644;28;21177;-75
2024/03/20 02:28:38;;;;;;;24.90;12.80;;;9.20;99.90;;;;;;4980368;28;20469;-74
2024/03/20 02:31:05;;;;;;;23.93;12.60;;;9.20;99.90;;;;;;4975187;28;20548;-75
2024/03/20 02:33:31;;;;;;;25.07;12.33;;;9.20;99.90;;;;;;4978368;28;20591;-75
2024/03/20 02:35:57;;;;;;;24.00;13.10;;;9.20;99.90;;;;;;4961247;28;20469;-74
2024/03/20 02:38:24;;;;;;;22.93;12.97;;;9.20;99.90;;;;;;4963242;28;20459;-75
2024/03/20 02:40:52;;;;;;;23.30;12.53;;;9.20;99.90;;;;;;4974350;28;20221;-74
2024/03/20 02:43:20;;;;;;;24.90;12.90;;;9.10;99.90;;;;;;4964501;28;20918;-75
2024/03/20 02:45:46;;;;;;;23.97;13.17;;;9.10;99.90;;;;;;4977822;28;20476;-73
2024/03/20 02:48:13;;;;;;;25.03;12.57;;;9.10;99.90;;;;;;4967906;28;20452;-74
2024/03/20 02:50:40;;;;;;;33.67;14.20;;;9.10;99.90;;;;;;4976572;28;20218;-72
2024/03/20 02:53:06;;;;;;;31.00;14.30;;;9.00;99.90;;;;;;4978606;28;20461;-75
2024/03/20 02:55:35;;;;;;;31.00;15.90;;;9.00;99.90;;;;;;4981138;28;20468;-75
2024/03/20 02:58:02;;;;;;;26.87;14.60;;;9.00;99.90;;;;;;4976566;28;20228;-75
2024/03/20 03:00:28;;;;;;;23.63;13.60;;;9.00;99.90;;;;;;4979785;28;21092;-74
2024/03/20 03:02:54;;;;;;;29.63;14.90;;;9.00;99.90;;;;;;4963748;28;20469;-74
2024/03/20 03:05:24;;;;;;;23.43;13.20;;;9.00;99.90;;;;;;4960904;28;20461;-75
2024/03/20 03:07:51;;;;;;;25.50;12.80;;;8.90;99.90;;;;;;4975808;28;20561;-74
2024/03/20 03:10:17;;;;;;;21.03;11.97;;;8.90;99.90;;;;;;4977454;28;20494;-75
2024/03/20 03:12:43;;;;;;;23.77;13.37;;;8.90;99.90;;;;;;4961464;28;20492;-75
2024/03/20 03:15:09;;;;;;;17.33;10.37;;;8.90;99.90;;;;;;4965266;28;20293;-75
2024/03/20 03:17:36;;;;;;;28.30;12.97;;;8.90;99.90;;;;;;4964229;28;20564;-74
2024/03/20 03:20:04;;;;;;;21.47;11.00;;;8.90;99.90;;;;;;4956865;28;20463;-75
2024/03/20 03:22:31;;;;;;;17.93;10.13;;;8.90;99.90;;;;;;4962399;28;20902;-75
2024/03/20 03:24:56;;;;;;;19.57;10.53;;;8.90;99.90;;;;;;4971228;28;20455;-74
2024/03/20 03:27:22;;;;;;;22.57;11.00;;;8.80;99.90;;;;;;4978404;28;20553;-75
2024/03/20 03:29:48;;;;;;;18.27;11.13;;;8.80;99.90;;;;;;4979717;28;20218;-75
2024/03/20 03:32:14;;;;;;;18.10;11.30;;;8.80;99.90;;;;;;4949014;28;20217;-75
2024/03/20 03:34:40;;;;;;;20.33;11.80;;;8.80;99.90;;;;;;4957907;28;20222;-75
2024/03/20 03:37:05;;;;;;;25.63;12.20;;;8.80;99.90;;;;;;4959787;28;20218;-75
2024/03/20 03:39:31;;;;;;;19.20;10.37;;;8.70;99.90;;;;;;4976704;28;20276;-75
2024/03/20 03:41:56;;;;;;;21.03;11.07;;;8.70;99.90;;;;;;4958302;28;20823;-74
2024/03/20 03:44:22;;;;;;;21.67;11.07;;;8.70;99.90;;;;;;4962791;28;20229;-74
2024/03/20 03:46:48;;;;;;;21.93;11.90;;;8.60;99.90;;;;;;4956821;28;20270;-74
2024/03/20 03:49:13;;;;;;;18.73;10.87;;;8.60;99.90;;;;;;4958862;28;20262;-74
2024/03/20 03:51:39;;;;;;;21.13;11.50;;;8.60;99.90;;;;;;4960910;28;20238;-75
2024/03/20 03:54:05;;;;;;;15.97;10.60;;;8.60;99.90;;;;;;4958996;28;20230;-73
2024/03/20 03:56:30;;;;;;;25.37;12.43;;;8.50;99.90;;;;;;4959531;28;20341;-73
2024/03/20 03:58:56;;;;;;;20.80;11.37;;;8.50;99.90;;;;;;4980982;28;20217;-74
2024/03/20 04:01:22;;;;;;;20.03;10.80;;;8.50;99.90;;;;;;4976382;28;20226;-75
2024/03/20 04:03:47;;;;;;;18.47;10.87;;;8.40;99.90;;;;;;4976598;28;20694;-75
2024/03/20 04:06:13;;;;;;;16.20;9.43;;;8.40;99.90;;;;;;4976608;28;20225;-75
2024/03/20 04:08:39;;;;;;;18.03;10.20;;;8.30;99.90;;;;;;4958151;28;20208;-73
2024/03/20 04:11:06;;;;;;;16.47;9.17;;;8.30;99.90;;;;;;4961755;28;20214;-74
2024/03/20 04:13:32;;;;;;;13.43;8.33;;;8.30;99.90;;;;;;4979312;28;20225;-74
2024/03/20 04:15:58;;;;;;;15.73;8.70;;;8.30;99.90;;;;;;4957256;28;20469;-74
2024/03/20 04:18:24;;;;;;;14.40;8.43;;;8.30;99.90;;;;;;4961279;28;20476;-75
2024/03/20 04:20:49;;;;;;;20.83;11.03;;;8.30;99.90;;;;;;4943210;28;20274;-74
2024/03/20 04:23:15;;;;;;;15.17;8.80;;;8.30;99.90;;;;;;4972564;28;20217;-75
2024/03/20 04:25:41;;;;;;;16.93;9.30;;;8.30;99.90;;;;;;4972045;28;20626;-76
2024/03/20 04:28:07;;;;;;;16.60;9.63;;;8.20;99.90;;;;;;4974841;28;20214;-74
2024/03/20 04:30:32;;;;;;;15.00;9.20;;;8.20;99.90;;;;;;4979511;28;20222;-75
2024/03/20 04:32:58;;;;;;;17.77;10.87;;;8.30;99.90;;;;;;4974143;28;20232;-74
2024/03/20 04:35:24;;;;;;;17.23;8.83;;;8.20;99.90;;;;;;4975345;28;20213;-75
2024/03/20 04:37:50;;;;;;;13.73;8.83;;;8.20;99.90;;;;;;4968073;28;20569;-74
2024/03/20 04:40:16;;;;;;;13.23;8.40;;;8.20;99.90;;;;;;4976447;28;20247;-75
2024/03/20 04:42:41;;;;;;;14.57;9.00;;;8.20;99.90;;;;;;4972212;28;20219;-76
2024/03/20 04:45:11;;;;;;;17.97;10.30;;;8.10;99.90;;;;;;4977048;28;20241;-74
2024/03/20 04:47:37;;;;;;;14.80;9.13;;;8.10;99.90;;;;;;4978802;28;20233;-75
2024/03/20 04:50:10;;;;;;;13.77;8.30;;;8.10;99.90;;;;;;4970011;28;21019;-75
2024/03/20 04:52:39;;;;;;;13.53;8.40;;;8.00;99.90;;;;;;4977922;28;20465;-74
2024/03/20 04:55:06;;;;;;;11.57;7.90;;;8.00;99.90;;;;;;4979974;28;20453;-74
2024/03/20 04:57:32;;;;;;;13.40;8.17;;;8.00;99.90;;;;;;4979737;28;20866;-75
2024/03/20 04:59:58;;;;;;;13.13;7.30;;;8.00;99.90;;;;;;4969160;28;20465;-73
2024/03/20 05:02:23;;;;;;;11.57;7.57;;;8.00;99.90;;;;;;4957097;28;20233;-74
2024/03/20 05:04:49;;;;;;;12.60;8.13;;;8.00;99.90;;;;;;4950039;28;20279;-74
2024/03/20 05:07:15;;;;;;;11.73;7.60;;;8.00;99.90;;;;;;4961167;28;20233;-73
2024/03/20 05:09:40;;;;;;;11.93;7.60;;;8.00;99.90;;;;;;4966120;28;20225;-74
2024/03/20 05:12:06;;;;;;;16.20;8.83;;;7.90;99.90;;;;;;4962730;28;20222;-74
2024/03/20 05:14:32;;;;;;;14.27;7.90;;;8.00;99.90;;;;;;4959438;28;20588;-74
2024/03/20 05:17:00;;;;;;;15.00;7.77;;;7.80;99.90;;;;;;4976247;28;20225;-73
2024/03/20 05:19:29;;;;;;;14.73;8.57;;;7.80;99.90;;;;;;4958276;28;20228;-74
2024/03/20 05:21:55;;;;;;;14.63;8.80;;;7.90;99.90;;;;;;4960762;28;20475;-74
2024/03/20 05:24:21;;;;;;;23.90;13.20;;;7.90;99.90;;;;;;4978373;28;20473;-73
2024/03/20 05:26:46;;;;;;;22.90;15.40;;;7.90;99.90;;;;;;4967969;28;20234;-73
2024/03/20 05:29:12;;;;;;;26.53;13.37;;;7.90;99.90;;;;;;4958698;28;20590;-74
2024/03/20 05:31:38;;;;;;;22.63;12.80;;;7.80;99.90;;;;;;4978070;28;20913;-74
2024/03/20 05:34:04;;;;;;;17.70;11.20;;;7.80;99.90;;;;;;4984789;28;20234;-75
2024/03/20 05:36:30;;;;;;;21.93;10.30;;;7.80;99.90;;;;;;4988923;28;20457;-73
2024/03/20 05:38:56;;;;;;;16.93;9.93;;;7.70;99.90;;;;;;4977254;28;20465;-74
2024/03/20 05:41:22;;;;;;;16.50;8.93;;;7.80;99.90;;;;;;4974314;28;20226;-74
2024/03/20 05:43:48;;;;;;;13.27;7.33;;;7.80;99.90;;;;;;4970841;28;20291;-74
2024/03/20 05:46:14;;;;;;;12.33;7.90;;;7.80;99.90;;;;;;4983017;28;20552;-75
2024/03/20 05:48:42;;;;;;;14.20;8.00;;;7.80;99.90;;;;;;4986364;28;20994;-73
2024/03/20 05:51:08;;;;;;;11.10;6.97;;;7.80;99.90;;;;;;4983883;28;20225;-74
2024/03/20 05:53:33;;;;;;;12.80;7.77;;;7.70;99.90;;;;;;4974532;28;20472;-74
2024/03/20 05:55:59;;;;;;;13.83;8.60;;;7.70;99.90;;;;;;4977799;28;20225;-73
2024/03/20 05:58:25;;;;;;;13.23;7.77;;;7.70;99.90;;;;;;4974677;28;20227;-74
2024/03/20 06:00:51;;;;;;;11.73;7.53;;;7.70;99.90;;;;;;4970929;28;20487;-73
2024/03/20 06:03:18;;;;;;;17.13;8.37;;;7.80;99.90;;;;;;4955379;28;20531;-74
2024/03/20 06:05:51;;;;;;;13.63;8.67;;;7.80;99.90;;;;;;4986630;28;20535;-73
2024/03/20 06:08:16;;;;;;;16.67;8.90;;;7.80;99.90;;;;;;4985751;28;20962;-74
2024/03/20 06:10:43;;;;;;;16.10;9.03;;;7.80;99.90;;;;;;4989150;28;20479;-74
2024/03/20 06:13:09;;;;;;;14.77;9.70;;;7.80;99.90;;;;;;4970240;28;20222;-74
2024/03/20 06:15:36;;;;;;;17.30;8.63;;;7.80;99.90;;;;;;4988363;28;20459;-74
2024/03/20 06:18:02;;;;;;;12.33;7.67;;;7.80;99.90;;;;;;4984141;28;20214;-74
2024/03/20 06:20:28;;;;;;;13.50;8.57;;;7.80;99.90;;;;;;4989590;28;20572;-75
2024/03/20 06:22:54;;;;;;;12.03;7.67;;;7.80;99.90;;;;;;4969771;28;20548;-75
2024/03/20 06:25:20;;;;;;;16.40;9.13;;;7.70;99.90;;;;;;4983298;28;20219;-75
2024/03/20 06:27:46;;;;;;;15.37;8.73;;;7.70;99.90;;;;;;4969317;28;20745;-75
2024/03/20 06:30:12;;;;;;;13.53;8.40;;;7.70;99.90;;;;;;4990387;28;20209;-75
2024/03/20 06:32:47;;;;;;;15.80;9.67;;;7.70;99.90;;;;;;4971774;28;20225;-75
2024/03/20 06:35:13;;;;;;;16.70;8.53;;;7.70;99.90;;;;;;4987871;28;20472;-75
2024/03/20 06:37:38;;;;;;;11.60;7.77;;;7.70;99.90;;;;;;4968763;28;20465;-74
2024/03/20 06:40:08;;;;;;;13.50;8.03;;;7.70;99.90;;;;;;4969405;28;20461;-75
2024/03/20 06:42:34;;;;;;;16.03;8.97;;;7.70;99.90;;;;;;4986330;28;20226;-74
2024/03/20 06:45:00;;;;;;;14.07;8.50;;;7.70;99.90;;;;;;4976804;28;20473;-74
2024/03/20 06:47:26;;;;;;;13.07;7.67;;;7.70;99.90;;;;;;4967196;28;20478;-75
2024/03/20 06:49:51;;;;;;;11.73;7.47;;;7.70;99.90;;;;;;4980802;28;20229;-74
2024/03/20 06:52:21;;;;;;;10.70;7.23;;;7.70;99.90;;;;;;4980967;28;20227;-76
2024/03/20 06:54:47;;;;;;;14.07;8.00;;;7.70;99.90;;;;;;4982564;28;20589;-75
2024/03/20 06:57:13;;;;;;;14.40;8.47;;;7.70;99.90;;;;;;4968607;28;20485;-74
2024/03/20 06:59:40;;;;;;;13.17;8.40;;;7.70;99.90;;;;;;4986172;28;20989;-74
2024/03/20 07:02:06;;;;;;;12.90;7.93;;;7.70;99.90;;;;;;4984396;28;20496;-75
2024/03/20 07:04:32;;;;;;;15.23;9.33;;;7.70;99.90;;;;;;4972850;28;20461;-75
2024/03/20 07:06:58;;;;;;;15.77;9.03;;;7.70;99.90;;;;;;4985945;28;20864;-74
2024/03/20 07:09:27;;;;;;;15.20;9.97;;;7.70;99.90;;;;;;4987396;28;20229;-73
2024/03/20 07:11:53;;;;;;;17.50;10.07;;;7.80;99.90;;;;;;4966071;28;20480;-73
2024/03/20 07:14:19;;;;;;;13.80;9.40;;;7.80;99.90;;;;;;4965764;28;20469;-75
2024/03/20 07:16:45;;;;;;;23.90;8.97;;;7.80;99.90;;;;;;4982881;28;20500;-75
2024/03/20 07:19:11;;;;;;;12.67;8.83;;;7.90;99.90;;;;;;4981654;28;20230;-74
2024/03/20 07:21:40;;;;;;;14.33;9.10;;;7.90;99.90;;;;;;4955904;28;20462;-75
2024/03/20 07:24:06;;;;;;;21.90;10.20;;;7.90;99.90;;;;;;4965304;28;20518;-74
2024/03/20 07:26:39;;;;;;;15.30;9.13;;;7.90;99.90;;;;;;4969899;28;20549;-74
2024/03/20 07:29:10;;;;;;;15.87;9.80;;;7.90;99.90;;;;;;4970127;28;20457;-75
2024/03/20 07:31:37;;;;;;;10.57;7.50;;;8.00;99.90;;;;;;4966980;28;20504;-76
2024/03/20 07:34:05;;;;;;;11.10;6.83;;;8.00;99.90;;;;;;4967676;28;20465;-74
2024/03/20 07:36:36;;;;;;;11.43;7.43;;;8.00;99.90;;;;;;4981029;28;20476;-72
2024/03/20 07:39:08;;;;;;;12.43;7.20;;;8.10;99.90;;;;;;4982718;28;20469;-74
2024/03/20 07:41:34;;;;;;;12.70;8.50;;;8.10;99.90;;;;;;4987315;28;20472;-75
2024/03/20 07:43:59;;;;;;;13.10;8.10;;;8.20;99.90;;;;;;4967916;28;20515;-74
2024/03/20 07:46:25;;;;;;;10.70;7.10;;;8.20;99.90;;;;;;4970511;28;20226;-75
2024/03/20 07:48:51;;;;;;;12.97;7.33;;;8.20;99.90;;;;;;4985187;28;20222;-75
2024/03/20 07:51:19;;;;;;;10.47;6.83;;;8.20;99.90;;;;;;4986100;28;20225;-75
2024/03/20 07:53:45;;;;;;;13.37;7.97;;;8.30;99.90;;;;;;4980153;28;20226;-74
2024/03/20 07:56:12;;;;;;;13.47;8.50;;;8.40;99.90;;;;;;4977535;28;20461;-75
2024/03/20 07:58:37;;;;;;;14.70;9.10;;;8.40;99.90;;;;;;4986890;28;20523;-74
2024/03/20 08:01:04;;;;;;;13.80;8.57;;;8.50;99.90;;;;;;4983194;28;20523;-75
2024/03/20 08:03:31;;;;;;;12.13;8.43;;;8.50;99.90;;;;;;4984070;28;20275;-75
2024/03/20 08:05:57;;;;;;;12.17;7.63;;;8.50;99.90;;;;;;4961948;28;20536;-75
2024/03/20 08:08:23;;;;;;;12.97;8.60;;;8.60;99.90;;;;;;4967489;28;20465;-75
2024/03/20 08:10:49;;;;;;;14.43;8.00;;;8.60;99.90;;;;;;4967600;28;20450;-75
2024/03/20 08:13:14;;;;;;;11.67;8.00;;;8.70;99.90;;;;;;4984876;28;20288;-75
2024/03/20 08:15:40;;;;;;;10.57;7.93;;;8.70;99.90;;;;;;4973716;28;20707;-75
2024/03/20 08:18:06;;;;;;;14.87;7.73;;;8.80;99.90;;;;;;4966289;28;20241;-75
2024/03/20 08:20:35;;;;;;;11.23;7.73;;;8.90;99.90;;;;;;4986003;28;20743;-75
2024/03/20 08:23:01;;;;;;;11.27;7.10;;;8.90;99.90;;;;;;4982689;28;20464;-75
2024/03/20 08:25:27;;;;;;;9.57;7.20;;;9.00;99.90;;;;;;4981560;28;21118;-74
2024/03/20 08:27:53;;;;;;;11.90;7.20;;;9.10;99.90;;;;;;4977400;28;20855;-75
2024/03/20 08:30:19;;;;;;;14.10;7.90;;;9.20;99.90;;;;;;4981315;28;20485;-75
2024/03/20 08:32:44;;;;;;;9.30;6.70;;;9.20;99.90;;;;;;4982792;28;20940;-75
2024/03/20 08:35:12;;;;;;;12.30;8.17;;;9.40;99.90;;;;;;4967760;28;20349;-75
2024/03/20 08:37:39;;;;;;;11.57;7.70;;;9.40;99.90;;;;;;4985776;28;20259;-75
2024/03/20 08:40:06;;;;;;;11.67;8.30;;;9.60;99.90;;;;;;4979695;28;20460;-74
2024/03/20 08:42:32;;;;;;;16.43;8.30;;;10.10;99.90;;;;;;4979680;28;20484;-75
2024/03/20 08:45:00;;;;;;;10.17;6.10;;;10.60;99.90;;;;;;4973196;28;21031;-75
2024/03/20 08:47:26;;;;;;;11.57;7.70;;;10.80;99.90;;;;;;4967363;28;20659;-75
2024/03/20 08:49:52;;;;;;;9.80;7.17;;;10.50;99.90;;;;;;4960614;28;20579;-75
2024/03/20 08:52:17;;;;;;;11.90;8.00;;;10.30;99.90;;;;;;4983060;28;20409;-75
2024/03/20 08:54:43;;;;;;;12.93;8.20;;;10.30;99.90;;;;;;4976965;28;20554;-74
2024/03/20 08:57:12;;;;;;;12.47;9.23;;;10.30;99.90;;;;;;4978056;28;20283;-75
2024/03/20 08:59:38;;;;;;;13.50;9.50;;;10.30;99.90;;;;;;4980548;28;20458;-74
2024/03/20 09:02:04;;;;;;;15.50;9.60;;;10.30;99.90;;;;;;4982186;28;20465;-76
2024/03/20 09:04:30;;;;;;;16.87;10.47;;;10.40;99.90;;;;;;4961625;28;20745;-74
2024/03/20 09:06:56;;;;;;;15.90;9.80;;;10.50;99.90;;;;;;4979594;28;20476;-75
2024/03/20 09:09:22;;;;;;;15.03;9.60;;;10.70;99.90;;;;;;4969202;28;20232;-76
2024/03/20 09:11:48;;;;;;;14.30;10.30;;;10.80;99.90;;;;;;4968285;28;20280;-74
2024/03/20 09:14:14;;;;;;;18.03;11.30;;;10.80;99.90;;;;;;4981122;28;20841;-75
2024/03/20 09:16:40;;;;;;;16.97;9.30;;;10.90;99.90;;;;;;4966027;28;20214;-74
2024/03/20 09:19:05;;;;;;;16.07;11.03;;;11.00;99.90;;;;;;4957175;28;20547;-75
2024/03/20 09:21:34;;;;;;;14.97;10.00;;;11.20;99.90;;;;;;4983562;28;20727;-75
2024/03/20 09:24:03;;;;;;;19.50;10.17;;;11.20;99.90;;;;;;4975026;28;20225;-74
2024/03/20 09:26:28;;;;;;;17.10;10.37;;;11.30;99.90;;;;;;4979650;28;20572;-76
2024/03/20 09:28:54;;;;;;;16.60;9.97;;;11.60;99.90;;;;;;4964756;28;20556;-75
2024/03/20 09:31:20;;;;;;;20.53;10.87;;;11.60;99.90;;;;;;4964452;28;20288;-75
2024/03/20 09:33:46;;;;;;;17.43;10.13;;;11.70;99.90;;;;;;4967731;28;21175;-75
2024/03/20 09:36:13;;;;;;;16.73;9.80;;;11.70;99.90;;;;;;4980863;28;20225;-75
2024/03/20 09:38:38;;;;;;;17.07;10.70;;;11.80;99.90;;;;;;4981863;28;20461;-75
2024/03/20 09:41:13;;;;;;;19.00;10.30;;;11.90;99.90;;;;;;4983581;28;20461;-74
2024/03/20 09:43:39;;;;;;;17.60;10.10;;;12.00;99.90;;;;;;4981473;28;20273;-75
2024/03/20 09:46:05;;;;;;;14.23;10.10;;;12.10;99.90;;;;;;4975842;28;20556;-75
2024/03/20 09:48:32;;;;;;;15.23;10.40;;;12.30;99.90;;;;;;4963354;28;20221;-74
2024/03/20 09:50:58;;;;;;;16.13;10.40;;;12.50;99.90;;;;;;4981155;28;20464;-75
2024/03/20 09:53:24;;;;;;;14.30;10.30;;;12.70;99.90;;;;;;4969404;28;20509;-75
2024/03/20 09:55:50;;;;;;;18.80;13.07;;;12.90;99.90;;;;;;4978990;28;20469;-75
2024/03/20 09:58:16;;;;;;;19.27;11.47;;;13.10;99.90;;;;;;4978835;28;20221;-75
2024/03/20 10:00:41;;;;;;;19.67;10.87;;;13.20;99.90;;;;;;4961942;28;20465;-74
2024/03/20 10:03:09;;;;;;;17.97;12.23;;;13.30;99.90;;;;;;4981051;28;20226;-74
2024/03/20 10:05:40;;;;;;;15.03;10.00;;;13.30;99.90;;;;;;4979053;28;20233;-74
2024/03/20 10:08:09;;;;;;;23.27;11.20;;;13.50;99.90;;;;;;4948248;28;20465;-75
2024/03/20 10:10:35;;;;;;;18.90;12.43;;;13.70;99.90;;;;;;4982262;28;21138;-75
2024/03/20 10:13:01;;;;;;;23.10;12.40;;;13.90;99.90;;;;;;4963121;28;20521;-76
2024/03/20 10:15:27;;;;;;;19.53;12.20;;;13.90;99.90;;;;;;4962162;28;20226;-75
2024/03/20 10:17:53;;;;;;;16.50;11.87;;;13.90;99.90;;;;;;4960436;28;20507;-75
2024/03/20 10:20:21;;;;;;;15.00;11.20;;;13.90;99.90;;;;;;4962886;28;20299;-76
2024/03/20 10:22:47;;;;;;;14.40;9.70;;;13.90;99.90;;;;;;4958316;28;20270;-76
2024/03/20 10:25:16;;;;;;;13.80;10.23;;;13.80;99.90;;;;;;4975647;28;20480;-75
2024/03/20 10:27:44;;;;;;;17.43;11.33;;;13.80;99.90;;;;;;4936247;28;20987;-76
2024/03/20 10:30:21;;;;;;;15.70;11.30;;;13.80;99.90;;;;;;4975728;28;20858;-75
2024/03/20 10:32:54;;;;;;;15.27;9.07;;;13.90;99.90;;;;;;4955538;28;20893;-75
2024/03/20 10:35:23;;;;;;;16.90;10.63;;;14.00;99.90;;;;;;4972279;28;20477;-76
2024/03/20 10:37:49;;;;;;;14.87;9.63;;;14.10;99.90;;;;;;4951814;28;20556;-76
2024/03/20 10:40:17;;;;;;;18.50;11.43;;;14.20;99.90;;;;;;4971684;28;20890;-76
2024/03/20 10:42:48;;;;;;;14.40;10.33;;;14.20;99.90;;;;;;4972103;28;20535;-76
2024/03/20 10:45:16;;;;;;;18.07;10.67;;;14.30;99.90;;;;;;4973076;28;20469;-76
2024/03/20 10:47:44;;;;;;;21.57;12.10;;;14.50;99.90;;;;;;4955025;28;20985;-76
2024/03/20 10:50:10;;;;;;;15.97;9.80;;;14.60;99.90;;;;;;4957743;28;20643;-75
2024/03/20 10:52:36;;;;;;;14.27;10.33;;;14.60;99.90;;;;;;4971084;28;20520;-75
2024/03/20 10:55:04;;;;;;;16.20;9.90;;;14.70;99.90;;;;;;4955467;28;20766;-76
2024/03/20 10:57:29;;;;;;;16.43;9.83;;;14.80;99.90;;;;;;4979935;28;20244;-74
2024/03/20 10:59:57;;;;;;;17.70;10.53;;;14.90;99.90;;;;;;4975510;28;20473;-75
2024/03/20 11:02:24;;;;;;;15.90;11.37;;;15.00;99.90;;;;;;4964600;28;20249;-75
2024/03/20 11:04:50;;;;;;;14.90;10.50;;;15.20;99.90;;;;;;4965519;28;20511;-75
2024/03/20 11:07:21;;;;;;;14.50;11.03;;;15.10;99.90;;;;;;4967407;28;20486;-75
2024/03/20 11:09:48;;;;;;;16.13;10.63;;;15.00;99.90;;;;;;4963624;28;20229;-77
2024/03/20 11:12:33;;;;;;;19.03;11.00;;;15.10;99.90;;;;;;4961852;28;20465;-75
2024/03/20 11:15:06;;;;;;;17.07;9.93;;;15.40;99.90;;;;;;4964559;28;20477;-75
2024/03/20 11:17:36;;;;;;;18.57;11.57;;;15.40;99.90;;;;;;4963966;28;20468;-76
2024/03/20 11:20:09;;;;;;;19.60;13.10;;;15.20;99.90;;;;;;4980333;28;20472;-75
2024/03/20 11:22:36;;;;;;;16.20;10.27;;;15.20;99.90;;;;;;4979397;28;20506;-75
2024/03/20 11:25:04;;;;;;;13.30;9.73;;;15.30;99.90;;;;;;4963219;28;20965;-75
2024/03/20 11:27:32;;;;;;;21.77;11.67;;;15.40;99.90;;;;;;4976728;28;20565;-76
2024/03/20 11:29:57;;;;;;;19.83;11.60;;;15.40;99.90;;;;;;4976945;28;20500;-76
2024/03/20 11:32:23;;;;;;;13.77;10.30;;;15.50;99.90;;;;;;4960847;28;20549;-76
2024/03/20 11:34:49;;;;;;;17.13;11.50;;;15.80;99.90;;;;;;4982289;28;20304;-75
2024/03/20 11:37:19;;;;;;;15.63;10.50;;;15.90;99.90;;;;;;4981127;28;20217;-75
2024/03/20 11:39:46;;;;;;;16.77;11.60;;;15.70;99.90;;;;;;4962139;28;20260;-76
2024/03/20 11:42:15;;;;;;;19.33;11.40;;;15.90;99.90;;;;;;4976589;28;20469;-75
2024/03/20 11:44:42;;;;;;;14.57;10.73;;;15.90;99.90;;;;;;4980308;28;20469;-75
2024/03/20 11:47:12;;;;;;;15.47;11.10;;;15.90;99.90;;;;;;4978250;28;20493;-76
2024/03/20 11:49:42;;;;;;;13.63;10.73;;;15.90;99.90;;;;;;4964598;28;20522;-75
2024/03/20 11:52:15;;;;;;;13.93;10.03;;;16.00;99.90;;;;;;4978963;28;20838;-76
2024/03/20 11:54:42;;;;;;;16.30;11.00;;;16.20;99.90;;;;;;4947064;28;21019;-76
2024/03/20 11:57:13;;;;;;;16.73;11.17;;;16.20;99.90;;;;;;4977388;28;20461;-76
2024/03/20 11:59:44;;;;;;;16.80;9.97;;;16.30;99.90;;;;;;4962199;28;20505;-75
2024/03/20 12:02:12;;;;;;;15.60;9.37;;;16.70;99.90;;;;;;4974469;28;20979;-77
2024/03/20 12:04:38;;;;;;;11.27;7.97;;;16.90;99.90;;;;;;4959156;28;21116;-76
2024/03/20 12:07:35;;;;;;;7.17;6.47;;;16.70;99.90;;;;;;4979519;28;20476;-76
2024/03/20 12:10:00;;;;;;;10.60;8.80;;;16.80;99.90;;;;;;4943390;28;20222;-75
2024/03/20 12:12:26;;;;;;;10.50;6.60;;;17.20;99.90;;;;;;4960624;28;20471;-75
2024/03/20 12:14:53;;;;;;;7.03;5.70;;;17.30;99.90;;;;;;4959695;28;20222;-76
2024/03/20 12:17:19;;;;;;;12.67;7.97;;;17.20;99.90;;;;;;4960094;28;20230;-76
2024/03/20 12:19:46;;;;;;;7.60;6.80;;;17.20;99.90;;;;;;4962982;28;20461;-75
2024/03/20 12:22:14;;;;;;;11.40;7.23;;;17.00;99.90;;;;;;4973422;28;20595;-76
2024/03/20 12:24:40;;;;;;;8.17;6.30;;;17.10;99.90;;;;;;4963614;28;20473;-75
2024/03/20 12:27:14;;;;;;;8.67;6.17;;;17.20;99.90;;;;;;4972531;28;20615;-75
2024/03/20 12:29:41;;;;;;;11.17;5.87;;;17.60;99.90;;;;;;4978944;28;20878;-75
2024/03/20 12:32:07;;;;;;;7.57;5.60;;;17.80;99.90;;;;;;4966519;28;21408;-76
2024/03/20 12:34:33;;;;;;;5.90;5.17;;;18.00;99.90;;;;;;4979976;28;20488;-76
2024/03/20 12:36:59;;;;;;;6.57;4.00;;;18.00;99.90;;;;;;4981612;28;20512;-77